Charles Town, WV

8:52 PM EST on December 27, 2014 (GMT -0500)
Tuscawilla Hills | Change Station
CLOSE
Current Station
Personal Weather Station
Location: Charles Town, WV
Elevation: 572 ft
Nearby Weather Stations

Elev 572 ft 39.29 °N, 77.90 °W | Updated 5 seconds ago

Partly Cloudy
Partly Cloudy
43.7 °F
Feels Like 44 °F
N
0.0
Wind Variable Wind from East
Gusts 0.0 mph

Today
High -- | Low -- °F
--% Chance of Precip.
Yesterday
High -- | Low -- °F
Precip. -- in
7:29 AM 4:55 PM
Waxing Crescent, 42% visible
Pressure 30.14 in
Visibility 10.0 miles
Clouds Clear
Windchill 44 °F
Dew Point 31 °F
Humidity 61%
Rainfall 0.00 in
Snow Depth Not available.
UV 0 out of 12
Pollen .10 out of 12
Air Quality Not available.
Flu Activity Not available.
METAR KMRB 280053Z AUTO 00000KT 10SM CLR 06/M03 A3012 RMK AO2 SLP206 T00561028 TSNO

More Conditions Fewer Conditions

Pressure 30.14 in
Visibility 10.0 miles
Clouds Clear
Windchill 44 °F
Dew Point 31 °F
Humidity 61%
Rainfall 0.00 in
Snow Depth Not available.
UV 0 out of 12
Pollen .10 out of 12
Air Quality Not available.
Flu Activity Not available.
METAR KMRB 280053Z AUTO 00000KT 10SM CLR 06/M03 A3012 RMK AO2 SLP206 T00561028 TSNO

More Conditions Fewer Conditions

10-Day Weather Forecast

Almanac

Astronomy

Dec. 27, 2014 Rise Set
Actual Time
Civil Twilight
Nautical Twilight
Astronomical Twilight
Moon
Length of Visible Light
Length of Day
Tomorrow will be .
, % of the Moon is Illuminated

Today's Extremes

State Highs State Lows

Community

WunderPhotos

Upload Photos

1,781,124 photos uploaded!

WunderBlogs® & News

Nearby

Air Quality

  Air Quality AQ Index Pollutant
Not available.

Snow Depth

Station Depth Elevation

Earthquake Activity

City Distance Mag. Time & Date
Minimum magnitude displayed is 2.5.

Coastal Water Temperatures

Place Temperature

Nearby Weather Stations